createdAt,value
2023-02-06T00:01:50.878Z,7.13
2023-02-06T00:04:18.754Z,8.25
2023-02-06T00:06:46.677Z,7.40
2023-02-06T00:09:15.723Z,8.10
2023-02-06T00:11:43.838Z,7.82
2023-02-06T00:14:11.549Z,8.38
2023-02-06T00:16:39.390Z,8.25
2023-02-06T00:19:07.308Z,9.07
2023-02-06T00:21:37.593Z,8.15
2023-02-06T00:24:05.746Z,8.50
2023-02-06T00:26:33.642Z,8.68
2023-02-06T00:29:01.424Z,8.05
2023-02-06T00:31:29.506Z,9.18
2023-02-06T00:33:57.238Z,8.98
2023-02-06T00:36:26.682Z,8.73
2023-02-06T00:38:54.599Z,8.80
2023-02-06T00:41:22.412Z,8.52
2023-02-06T00:43:52.064Z,9.20
2023-02-06T00:46:20.261Z,9.07
2023-02-06T00:48:48.105Z,9.10
2023-02-06T00:51:16.167Z,9.55
2023-02-06T00:53:43.902Z,9.52
2023-02-06T00:56:11.734Z,9.15
2023-02-06T00:58:39.434Z,9.82
2023-02-06T01:01:07.473Z,9.27
2023-02-06T01:03:35.387Z,9.45
2023-02-06T01:06:03.206Z,9.85
2023-02-06T01:08:30.857Z,9.90
2023-02-06T01:11:00.414Z,10.00
2023-02-06T01:13:28.305Z,9.93
2023-02-06T01:15:56.122Z,10.15
2023-02-06T01:18:24.135Z,10.38
2023-02-06T01:20:51.787Z,10.60
2023-02-06T01:23:19.408Z,10.93
2023-02-06T01:25:47.121Z,11.25
2023-02-06T01:28:16.791Z,11.70
2023-02-06T01:30:44.628Z,11.43
2023-02-06T01:33:12.397Z,10.93
2023-02-06T01:35:40.104Z,12.00
2023-02-06T01:38:08.915Z,11.95
2023-02-06T01:40:36.652Z,11.95
2023-02-06T01:43:10.993Z,12.20
2023-02-06T01:45:42.911Z,11.82
2023-02-06T01:48:17.074Z,12.00
2023-02-06T01:50:51.121Z,12.02
2023-02-06T01:53:22.341Z,12.00
2023-02-06T01:55:53.369Z,12.25
2023-02-06T01:58:38.623Z,12.55
2023-02-06T02:01:07.537Z,12.43
2023-02-06T02:03:39.448Z,12.70
2023-02-06T02:06:13.359Z,13.02
2023-02-06T02:08:48.052Z,13.18
2023-02-06T02:11:23.808Z,13.68
2023-02-06T02:13:52.607Z,13.85
2023-02-06T02:16:35.908Z,13.88
2023-02-06T02:19:50.167Z,14.45
2023-02-06T02:22:47.961Z,13.32
2023-02-06T02:25:37.622Z,13.95
2023-02-06T02:28:52.781Z,13.73
2023-02-06T02:31:49.922Z,13.90
2023-02-06T02:34:40.083Z,14.05
2023-02-06T02:37:33.953Z,14.45
2023-02-06T02:40:18.859Z,14.73
2023-02-06T02:43:23.254Z,14.50
2023-02-06T02:46:27.749Z,13.82
2023-02-06T02:49:19.631Z,14.05
2023-02-06T02:52:09.801Z,14.05
2023-02-06T02:54:37.995Z,13.82
2023-02-06T02:57:32.074Z,13.90
2023-02-06T03:00:01.772Z,14.13
2023-02-06T03:02:38.072Z,14.43
2023-02-06T03:05:10.604Z,13.98
2023-02-06T03:08:06.479Z,14.75
2023-02-06T03:11:02.993Z,14.30
2023-02-06T03:13:45.632Z,14.05
2023-02-06T03:16:36.858Z,13.52
2023-02-06T03:19:15.195Z,14.60
2023-02-06T03:21:45.800Z,13.82
2023-02-06T03:24:19.850Z,14.38
2023-02-06T03:26:52.509Z,14.13
2023-02-06T03:29:21.247Z,14.20
2023-02-06T03:32:05.432Z,14.65
2023-02-06T03:34:45.297Z,14.18
2023-02-06T03:37:14.871Z,14.02
2023-02-06T03:39:43.343Z,14.95
2023-02-06T03:42:13.700Z,14.88
2023-02-06T03:44:48.876Z,14.10
2023-02-06T03:47:20.994Z,13.90
2023-02-06T03:49:50.825Z,13.63
2023-02-06T03:52:25.597Z,13.32
2023-02-06T03:55:00.278Z,13.40
2023-02-06T03:57:31.425Z,13.90
2023-02-06T03:59:59.517Z,13.43
2023-02-06T04:02:28.808Z,14.38
2023-02-06T04:04:56.977Z,14.48
2023-02-06T04:07:28.628Z,13.75
2023-02-06T04:09:56.633Z,13.82
2023-02-06T04:12:24.886Z,13.80
2023-02-06T04:14:53.280Z,14.57
2023-02-06T04:17:40.707Z,14.63
2023-02-06T04:20:10.039Z,15.45
2023-02-06T04:22:39.236Z,13.15
2023-02-06T04:25:07.373Z,14.02
2023-02-06T04:27:37.144Z,13.32
2023-02-06T04:30:06.275Z,14.88
2023-02-06T04:32:34.244Z,13.98
2023-02-06T04:35:02.072Z,14.00
2023-02-06T04:37:29.963Z,13.73
2023-02-06T04:39:57.681Z,13.02
2023-02-06T04:42:25.677Z,14.07
2023-02-06T04:44:53.363Z,13.77
2023-02-06T04:47:21.095Z,12.73
2023-02-06T04:49:48.832Z,12.63
2023-02-06T04:52:16.682Z,13.48
2023-02-06T04:54:44.492Z,12.75
2023-02-06T04:57:12.293Z,12.75
2023-02-06T04:59:39.943Z,12.65
2023-02-06T05:02:07.747Z,13.20
2023-02-06T05:04:35.761Z,12.88
2023-02-06T05:07:05.428Z,12.80
2023-02-06T05:09:33.370Z,11.93
2023-02-06T05:12:01.170Z,11.68
2023-02-06T05:14:29.017Z,12.25
2023-02-06T05:16:56.725Z,12.82
2023-02-06T05:19:24.470Z,12.32
2023-02-06T05:21:52.196Z,13.32
2023-02-06T05:24:20.093Z,11.60
2023-02-06T05:26:48.191Z,13.05
2023-02-06T05:29:15.863Z,12.77
2023-02-06T05:31:43.657Z,12.48
2023-02-06T05:34:11.623Z,12.25
2023-02-06T05:36:39.474Z,12.73
2023-02-06T05:39:07.541Z,12.25
2023-02-06T05:41:35.748Z,12.00
2023-02-06T05:44:03.557Z,11.57
2023-02-06T05:46:31.441Z,12.20
2023-02-06T05:48:59.413Z,12.65
2023-02-06T05:51:27.218Z,12.00
2023-02-06T05:53:55.125Z,13.52
2023-02-06T05:56:23.023Z,12.77
2023-02-06T05:58:50.790Z,13.32
2023-02-06T06:01:18.612Z,13.77
2023-02-06T06:03:46.473Z,14.68
2023-02-06T06:06:14.222Z,13.52
2023-02-06T06:08:41.882Z,14.52
2023-02-06T06:11:09.591Z,13.98
2023-02-06T06:13:37.362Z,13.80
2023-02-06T06:16:05.643Z,13.23
2023-02-06T06:18:33.424Z,13.07
2023-02-06T06:21:01.332Z,12.68
2023-02-06T06:23:28.993Z,12.40
2023-02-06T06:25:56.781Z,11.98
2023-02-06T06:28:24.529Z,13.52
2023-02-06T06:30:59.649Z,14.50
2023-02-06T06:33:27.742Z,14.45
2023-02-06T06:35:55.715Z,13.90
2023-02-06T06:38:24.077Z,14.43
2023-02-06T06:40:52.877Z,14.73
2023-02-06T06:43:20.803Z,14.80
2023-02-06T06:45:48.731Z,14.45
2023-02-06T06:48:16.858Z,15.02
2023-02-06T06:50:44.839Z,18.38
2023-02-06T06:53:12.581Z,33.17
2023-02-06T06:55:40.594Z,21.30
2023-02-06T06:58:08.331Z,17.05
2023-02-06T07:00:38.176Z,14.48
2023-02-06T07:03:07.814Z,15.05
2023-02-06T07:05:36.007Z,14.25
2023-02-06T07:08:04.520Z,14.27
2023-02-06T07:10:33.275Z,15.40
2023-02-06T07:13:01.461Z,14.60
2023-02-06T07:15:29.219Z,16.08
2023-02-06T07:17:57.218Z,14.77
2023-02-06T07:20:24.941Z,14.38
2023-02-06T07:22:53.660Z,14.75
2023-02-06T07:25:21.445Z,14.35
2023-02-06T07:27:49.352Z,14.57
2023-02-06T07:30:17.150Z,14.02
2023-02-06T07:32:44.910Z,13.60
2023-02-06T07:35:15.199Z,13.35
2023-02-06T07:37:42.884Z,13.75
2023-02-06T07:40:11.778Z,13.32
2023-02-06T07:42:40.106Z,14.85
2023-02-06T07:45:16.394Z,13.65
2023-02-06T07:47:44.538Z,13.27
2023-02-06T07:50:15.422Z,12.57
2023-02-06T07:52:43.117Z,13.60
2023-02-06T07:55:11.028Z,15.93
2023-02-06T07:57:40.864Z,14.60
2023-02-06T08:00:09.659Z,13.25
2023-02-06T08:02:42.763Z,13.02
2023-02-06T08:05:10.697Z,13.35
2023-02-06T08:07:38.421Z,14.00
2023-02-06T08:10:07.260Z,13.90
2023-02-06T08:12:34.949Z,13.35
2023-02-06T08:15:02.703Z,13.38
2023-02-06T08:17:30.466Z,12.43
2023-02-06T08:19:58.343Z,15.82
2023-02-06T08:22:28.288Z,15.77
2023-02-06T08:24:56.467Z,13.90
2023-02-06T08:27:24.325Z,13.15
2023-02-06T08:29:52.211Z,13.63
2023-02-06T08:32:20.100Z,13.52
2023-02-06T08:34:48.275Z,13.35
2023-02-06T08:37:16.173Z,13.57
2023-02-06T08:39:44.450Z,13.48
2023-02-06T08:42:12.577Z,12.15
2023-02-06T08:44:40.655Z,14.15
2023-02-06T08:47:10.471Z,19.95
2023-02-06T08:49:38.636Z,19.10
2023-02-06T08:52:13.111Z,15.88
2023-02-06T08:54:40.891Z,19.23
2023-02-06T08:57:09.749Z,13.20
2023-02-06T08:59:38.374Z,24.15
2023-02-06T09:02:08.575Z,15.60
2023-02-06T09:04:37.815Z,19.90
2023-02-06T09:07:05.929Z,13.55
2023-02-06T09:09:33.637Z,12.55
2023-02-06T09:12:03.883Z,12.75
2023-02-06T09:14:32.026Z,12.40
2023-02-06T09:16:59.851Z,13.73
2023-02-06T09:19:28.112Z,13.63
2023-02-06T09:21:55.847Z,11.70
2023-02-06T09:24:24.070Z,10.45
2023-02-06T09:26:59.864Z,10.40
2023-02-06T09:29:32.120Z,9.35
2023-02-06T09:34:28.560Z,7.82
2023-02-06T09:36:57.682Z,9.98
2023-02-06T09:39:25.924Z,9.98
2023-02-06T09:42:17.681Z,14.55
2023-02-06T09:44:53.466Z,17.20
2023-02-06T09:47:35.324Z,20.02
2023-02-06T09:53:22.220Z,12.07
2023-02-06T09:56:13.979Z,8.90
2023-02-06T09:59:05.832Z,12.73
2023-02-06T10:02:00.904Z,9.10
2023-02-06T10:05:15.102Z,11.73
2023-02-06T10:08:19.265Z,6.20
2023-02-06T10:10:58.496Z,8.35
2023-02-06T10:13:49.678Z,7.78
2023-02-06T10:16:42.395Z,10.48
2023-02-06T10:19:46.659Z,11.88
2023-02-06T10:22:24.315Z,9.27
2023-02-06T10:25:00.932Z,8.23
2023-02-06T10:27:29.725Z,12.77
2023-02-06T10:29:57.412Z,13.38
2023-02-06T10:32:56.615Z,25.73
2023-02-06T10:36:25.652Z,12.15
2023-02-06T10:39:24.193Z,10.40
2023-02-06T10:42:21.148Z,12.77
2023-02-06T10:45:19.739Z,9.07
2023-02-06T10:48:48.205Z,10.27
2023-02-06T10:51:35.183Z,10.48
2023-02-06T10:54:33.662Z,21.30
2023-02-06T10:57:03.046Z,8.95
2023-02-06T10:59:40.373Z,10.15
2023-02-06T11:02:07.992Z,7.03
2023-02-06T11:04:42.212Z,10.98
2023-02-06T11:07:22.663Z,8.15
2023-02-06T11:09:54.579Z,14.07
2023-02-06T11:12:37.359Z,6.93
2023-02-06T11:15:22.156Z,5.80
2023-02-06T11:17:53.477Z,4.28
2023-02-06T11:20:29.505Z,4.38
2023-02-06T11:23:13.207Z,5.05
2023-02-06T11:25:42.148Z,4.10
2023-02-06T11:28:16.021Z,3.42
2023-02-06T11:30:58.476Z,4.05
2023-02-06T11:33:56.650Z,3.10
2023-02-06T11:36:28.905Z,2.80
2023-02-06T11:39:07.616Z,3.17
2023-02-06T11:41:35.590Z,3.53
2023-02-06T11:44:06.588Z,4.50
2023-02-06T11:46:37.946Z,5.00
2023-02-06T11:49:18.949Z,3.58
2023-02-06T11:52:03.801Z,5.88
2023-02-06T11:54:35.894Z,3.40
2023-02-06T11:57:24.023Z,3.45
2023-02-06T11:59:58.848Z,3.70
2023-02-06T12:02:34.963Z,4.10
2023-02-06T12:05:14.859Z,4.20
2023-02-06T12:08:26.439Z,4.15
2023-02-06T12:11:06.703Z,7.25
2023-02-06T12:13:42.400Z,4.93
2023-02-06T12:16:15.248Z,4.07
2023-02-06T12:18:48.338Z,4.20
2023-02-06T12:21:42.635Z,3.72
2023-02-06T12:24:28.725Z,3.80
2023-02-06T12:27:01.555Z,4.07
2023-02-06T12:29:35.516Z,4.13
2023-02-06T12:32:22.072Z,4.13
2023-02-06T12:35:00.314Z,4.05
2023-02-06T12:37:47.037Z,4.40
2023-02-06T12:41:03.521Z,3.85
2023-02-06T12:43:35.393Z,4.22
2023-02-06T12:46:11.510Z,4.20
2023-02-06T12:48:54.859Z,4.60
2023-02-06T12:51:41.648Z,9.05
2023-02-06T12:54:34.909Z,5.00
2023-02-06T12:57:22.767Z,4.15
2023-02-06T13:00:35.519Z,4.30
2023-02-06T13:03:26.088Z,3.03
2023-02-06T13:06:17.912Z,3.90
2023-02-06T13:11:29.958Z,3.50
2023-02-06T13:14:16.613Z,4.03
2023-02-06T13:16:46.228Z,4.03
2023-02-06T13:19:40.255Z,3.90
2023-02-06T13:22:10.638Z,3.58
2023-02-06T13:24:41.376Z,3.45
2023-02-06T13:27:08.942Z,3.37
2023-02-06T13:29:44.708Z,3.78
2023-02-06T13:32:12.380Z,4.13
2023-02-06T13:34:44.388Z,3.90
2023-02-06T13:37:33.496Z,3.63
2023-02-06T13:40:32.199Z,3.67
2023-02-06T13:43:27.108Z,3.78
2023-02-06T13:46:00.461Z,5.78
2023-02-06T13:48:53.069Z,5.07
2023-02-06T13:51:44.029Z,4.38
2023-02-06T13:54:48.579Z,2.88
2023-02-06T13:57:48.867Z,3.38
2023-02-06T14:00:25.820Z,3.75
2023-02-06T14:03:28.424Z,3.60
2023-02-06T14:06:07.782Z,3.83
2023-02-06T14:09:19.409Z,3.78
2023-02-06T14:12:24.099Z,3.35
2023-02-06T14:15:28.863Z,3.08
2023-02-06T14:18:21.011Z,3.05
2023-02-06T14:21:32.692Z,3.13
2023-02-06T14:24:30.969Z,3.05
2023-02-06T14:27:33.803Z,3.20
2023-02-06T14:30:19.810Z,3.08
2023-02-06T14:33:19.855Z,3.20
2023-02-06T14:36:24.739Z,3.20
2023-02-06T14:39:38.910Z,3.63
2023-02-06T14:42:35.855Z,4.45
2023-02-06T14:45:27.380Z,3.30
2023-02-06T14:47:58.878Z,3.30
2023-02-06T14:50:55.456Z,3.13
2023-02-06T14:53:36.907Z,3.13
2023-02-06T14:56:33.408Z,3.33
2023-02-06T14:59:13.108Z,3.28
2023-02-06T15:01:43.603Z,3.50
2023-02-06T15:04:21.952Z,2.45
2023-02-06T15:07:02.352Z,3.00
2023-02-06T15:09:38.771Z,3.38
2023-02-06T15:12:24.985Z,3.22
2023-02-06T15:15:19.908Z,3.00
2023-02-06T15:18:05.450Z,3.85
2023-02-06T15:20:40.151Z,3.70
2023-02-06T15:23:41.645Z,3.58
2023-02-06T15:26:18.561Z,2.55
2023-02-06T15:28:46.549Z,4.90
2023-02-06T15:31:21.517Z,4.13
2023-02-06T15:33:53.503Z,3.50
2023-02-06T15:36:39.321Z,5.18
2023-02-06T15:39:09.640Z,4.40
2023-02-06T15:41:39.610Z,4.18
2023-02-06T15:44:23.198Z,4.60
2023-02-06T15:46:52.727Z,3.70
2023-02-06T15:49:42.400Z,3.53
2023-02-06T15:52:31.209Z,3.85
2023-02-06T15:55:00.774Z,6.90
2023-02-06T15:57:40.681Z,3.70
2023-02-06T16:00:26.791Z,3.88
2023-02-06T16:03:02.828Z,6.30
2023-02-06T16:05:41.214Z,4.07
2023-02-06T16:08:22.122Z,6.07
2023-02-06T16:10:53.902Z,4.60
2023-02-06T16:13:28.298Z,5.50
2023-02-06T16:16:11.745Z,4.85
2023-02-06T16:18:40.630Z,4.18
2023-02-06T16:21:17.154Z,4.88
2023-02-06T16:23:53.364Z,10.18
2023-02-06T16:26:44.190Z,6.82
2023-02-06T16:29:31.453Z,5.85
2023-02-06T16:32:11.918Z,6.53
2023-02-06T16:34:44.107Z,5.53
2023-02-06T16:37:25.682Z,5.50
2023-02-06T16:39:54.334Z,6.15
2023-02-06T16:42:32.291Z,5.53
2023-02-06T16:45:07.308Z,4.63
2023-02-06T16:47:35.174Z,5.70
2023-02-06T16:50:03.696Z,5.53
2023-02-06T16:52:33.975Z,4.68
2023-02-06T16:55:02.417Z,4.25
2023-02-06T16:57:41.324Z,5.90
2023-02-06T17:00:22.396Z,4.82
2023-02-06T17:02:54.624Z,4.65
2023-02-06T17:05:25.408Z,4.43
2023-02-06T17:07:54.154Z,3.25
2023-02-06T17:10:26.194Z,4.07
2023-02-06T17:12:54.720Z,4.35
2023-02-06T17:15:22.707Z,3.90
2023-02-06T17:17:51.370Z,3.90
2023-02-06T17:20:39.288Z,3.58
2023-02-06T17:23:07.670Z,3.80
2023-02-06T17:25:35.608Z,3.55
2023-02-06T17:28:06.998Z,3.80
2023-02-06T17:30:37.874Z,3.55
2023-02-06T17:33:06.515Z,3.72
2023-02-06T17:35:39.079Z,3.47
2023-02-06T17:38:08.957Z,3.80
2023-02-06T17:40:40.038Z,3.75
2023-02-06T17:43:08.610Z,3.60
2023-02-06T17:45:39.666Z,4.10
2023-02-06T17:48:08.430Z,4.25
2023-02-06T17:50:38.024Z,4.18
2023-02-06T17:53:07.112Z,3.92
2023-02-06T17:55:35.939Z,3.50
2023-02-06T17:58:04.248Z,3.50
2023-02-06T18:00:32.241Z,3.17
2023-02-06T18:03:00.654Z,4.60
2023-02-06T18:05:28.646Z,3.33
2023-02-06T18:07:56.577Z,3.67
2023-02-06T18:10:26.425Z,3.47
2023-02-06T18:12:54.185Z,3.85
2023-02-06T18:15:21.983Z,4.72
2023-02-06T18:17:49.866Z,4.60
2023-02-06T18:20:17.734Z,4.65
2023-02-06T18:22:46.552Z,4.10
2023-02-06T18:25:15.563Z,5.22
2023-02-06T18:27:45.823Z,4.57
2023-02-06T18:30:15.187Z,5.10
2023-02-06T18:32:44.722Z,5.78
2023-02-06T18:35:14.725Z,4.93
2023-02-06T18:37:43.667Z,5.28
2023-02-06T18:40:12.047Z,5.43
2023-02-06T18:42:53.777Z,6.22
2023-02-06T18:47:53.656Z,6.22
2023-02-06T18:50:22.277Z,6.28
2023-02-06T18:52:50.947Z,7.25
2023-02-06T18:55:19.511Z,8.35
2023-02-06T18:57:47.547Z,10.32
2023-02-06T19:00:17.959Z,8.70
2023-02-06T19:02:46.399Z,10.40
2023-02-06T19:05:14.691Z,9.98
2023-02-06T19:07:42.697Z,10.48
2023-02-06T19:10:12.888Z,8.90
2023-02-06T19:12:40.734Z,9.10
2023-02-06T19:15:10.275Z,7.70
2023-02-06T19:17:38.481Z,7.00
2023-02-06T19:20:07.219Z,7.97
2023-02-06T19:22:36.423Z,10.43
2023-02-06T19:25:10.217Z,9.93
2023-02-06T19:27:39.011Z,8.70
2023-02-06T19:30:08.054Z,9.35
2023-02-06T19:32:36.545Z,8.65
2023-02-06T19:35:05.655Z,7.20
2023-02-06T19:37:33.649Z,6.90
2023-02-06T19:40:01.367Z,6.90
2023-02-06T19:42:29.299Z,7.25
2023-02-06T19:44:57.069Z,6.90
2023-02-06T19:47:24.972Z,6.60
2023-02-06T19:49:52.910Z,5.88
2023-02-06T19:52:20.829Z,5.47
2023-02-06T19:54:48.823Z,4.80
2023-02-06T19:57:19.312Z,4.28
2023-02-06T19:59:47.132Z,4.65
2023-02-06T20:02:16.154Z,4.80
2023-02-06T20:04:46.048Z,4.22
2023-02-06T20:07:14.336Z,3.55
2023-02-06T20:09:42.637Z,4.28
2023-02-06T20:12:12.493Z,3.72
2023-02-06T20:14:40.361Z,3.47
2023-02-06T20:17:08.349Z,3.97
2023-02-06T20:19:36.356Z,3.80
2023-02-06T20:22:05.018Z,3.78
2023-02-06T20:24:33.069Z,3.75
2023-02-06T20:27:07.214Z,3.78
2023-02-06T20:29:42.951Z,3.50
2023-02-06T20:32:11.674Z,3.63
2023-02-06T20:34:39.400Z,3.35
2023-02-06T20:37:07.246Z,3.10
2023-02-06T20:39:35.486Z,3.50
2023-02-06T20:44:34.204Z,3.30
2023-02-06T20:47:02.110Z,2.70
2023-02-06T20:49:31.114Z,3.10
2023-02-06T20:51:59.173Z,2.95
2023-02-06T20:54:27.213Z,3.10
2023-02-06T20:56:55.582Z,3.40
2023-02-06T20:59:23.546Z,3.40
2023-02-06T21:01:51.602Z,3.60
2023-02-06T21:04:19.953Z,3.50
2023-02-06T21:06:49.836Z,3.20
2023-02-06T21:09:18.713Z,2.92
2023-02-06T21:11:50.012Z,2.90
2023-02-06T21:14:18.810Z,3.03
2023-02-06T21:16:47.362Z,3.70
2023-02-06T21:19:19.094Z,3.60
2023-02-06T21:21:47.108Z,3.75
2023-02-06T21:24:17.095Z,4.55
2023-02-06T21:26:45.114Z,3.55
2023-02-06T21:29:15.038Z,3.50
2023-02-06T21:31:43.136Z,4.35
2023-02-06T21:34:21.545Z,4.35
2023-02-06T21:36:49.948Z,4.70
2023-02-06T21:39:22.825Z,4.43
2023-02-06T21:41:56.571Z,3.90
2023-02-06T21:44:26.390Z,3.95
2023-02-06T21:46:55.916Z,3.50
2023-02-06T21:49:23.937Z,3.35
2023-02-06T21:51:53.172Z,3.75
2023-02-06T21:54:21.786Z,3.90
2023-02-06T21:56:49.552Z,4.03
2023-02-06T21:59:18.615Z,3.80
2023-02-06T22:01:46.537Z,3.97
2023-02-06T22:04:14.379Z,4.22
2023-02-06T22:06:42.314Z,4.00
2023-02-06T22:09:16.316Z,5.00
2023-02-06T22:11:44.714Z,4.43
2023-02-06T22:14:16.149Z,5.07
2023-02-06T22:16:46.755Z,5.90
2023-02-06T22:19:16.328Z,5.28
2023-02-06T22:21:45.068Z,5.53
2023-02-06T22:24:13.468Z,5.80
2023-02-06T22:26:41.551Z,5.45
2023-02-06T22:29:15.008Z,5.00
2023-02-06T22:31:44.361Z,4.55
2023-02-06T22:34:20.808Z,5.40
2023-02-06T22:36:50.981Z,5.40
2023-02-06T22:39:19.315Z,4.68
2023-02-06T22:41:47.429Z,5.45
2023-02-06T22:44:17.202Z,5.35
2023-02-06T22:46:52.668Z,5.65
2023-02-06T22:49:21.621Z,5.40
2023-02-06T22:51:49.809Z,5.50
2023-02-06T22:54:18.078Z,5.38
2023-02-06T22:56:46.018Z,4.28
2023-02-06T22:59:19.415Z,3.92
2023-02-06T23:01:57.779Z,3.83
2023-02-06T23:04:35.029Z,4.05
2023-02-06T23:07:03.287Z,3.42
2023-02-06T23:09:35.228Z,3.97
2023-02-06T23:12:04.214Z,3.90
2023-02-06T23:14:33.343Z,3.92
2023-02-06T23:17:02.244Z,4.20
2023-02-06T23:19:30.579Z,3.78
2023-02-06T23:21:58.665Z,3.92
2023-02-06T23:24:26.587Z,3.97
2023-02-06T23:26:54.833Z,4.45
2023-02-06T23:29:24.208Z,4.28
2023-02-06T23:31:52.727Z,3.88
2023-02-06T23:34:24.117Z,3.70
2023-02-06T23:36:53.418Z,3.35
2023-02-06T23:39:21.453Z,3.72
2023-02-06T23:41:49.546Z,3.50
2023-02-06T23:44:17.748Z,3.70
2023-02-06T23:46:45.925Z,3.35
2023-02-06T23:49:13.787Z,3.67
2023-02-06T23:51:42.242Z,3.35
2023-02-06T23:54:10.459Z,3.50
2023-02-06T23:56:38.386Z,3.13
2023-02-06T23:59:06.692Z,3.45
